createdAt,value
2016-12-08T00:00:12.092Z,21.28
2016-12-08T00:00:40.161Z,21.4
2016-12-08T00:01:08.271Z,21.28
2016-12-08T00:01:36.404Z,21.38
2016-12-08T00:02:04.534Z,21.33
2016-12-08T00:02:32.665Z,21.31
2016-12-08T00:03:00.576Z,21.33
2016-12-08T00:03:28.612Z,21.33
2016-12-08T00:03:56.600Z,21.37
2016-12-08T00:04:24.601Z,21.3
2016-12-08T00:04:52.903Z,21.27
2016-12-08T00:05:20.922Z,21.34
2016-12-08T00:05:49.059Z,21.27
2016-12-08T00:06:17.148Z,21.33
2016-12-08T00:06:45.313Z,21.36
2016-12-08T00:07:13.373Z,21.27
2016-12-08T00:07:41.446Z,21.27
2016-12-08T00:08:09.389Z,21.28
2016-12-08T00:08:37.494Z,21.28
2016-12-08T00:09:05.651Z,21.41
2016-12-08T00:09:33.770Z,21.3
2016-12-08T00:10:01.912Z,21.27
2016-12-08T00:10:30.150Z,21.31
2016-12-08T00:10:58.207Z,21.4
2016-12-08T00:11:26.446Z,21.36
2016-12-08T00:11:54.696Z,21.34
2016-12-08T00:12:22.816Z,21.36
2016-12-08T00:12:51.082Z,21.28
2016-12-08T00:13:19.234Z,21.33
2016-12-08T00:13:47.476Z,21.34
2016-12-08T00:14:15.531Z,21.28
2016-12-08T00:14:43.717Z,21.25
2016-12-08T00:15:11.817Z,21.23
2016-12-08T00:15:39.914Z,21.27
2016-12-08T00:16:08.178Z,21.3
2016-12-08T00:16:36.272Z,21.31
2016-12-08T00:17:04.442Z,21.21
2016-12-08T00:17:32.702Z,21.23
2016-12-08T00:18:00.841Z,21.23
2016-12-08T00:18:28.877Z,21.23
2016-12-08T00:18:57.105Z,21.25
2016-12-08T00:19:25.245Z,21.25
2016-12-08T00:19:53.186Z,21.23
2016-12-08T00:20:21.219Z,21.23
2016-12-08T00:20:49.399Z,21.23
2016-12-08T00:21:17.700Z,21.23
2016-12-08T00:21:45.878Z,21.28
2016-12-08T00:22:14.094Z,21.31
2016-12-08T00:22:42.209Z,21.33
2016-12-08T00:23:10.437Z,21.46
2016-12-08T00:23:38.239Z,21.23
2016-12-08T00:24:06.407Z,21.34
2016-12-08T00:24:34.536Z,21.33
2016-12-08T00:25:02.604Z,21.4
2016-12-08T00:25:30.839Z,21.33
2016-12-08T00:25:58.951Z,21.38
2016-12-08T00:26:27.074Z,21.36
2016-12-08T00:26:55.447Z,21.41
2016-12-08T00:27:23.570Z,21.37
2016-12-08T00:27:51.563Z,21.38
2016-12-08T00:28:19.667Z,21.46
2016-12-08T00:28:47.734Z,21.34
2016-12-08T00:29:15.858Z,21.37
2016-12-08T00:29:43.995Z,21.38
2016-12-08T00:30:12.137Z,21.38
2016-12-08T00:30:40.293Z,21.36
2016-12-08T00:31:08.501Z,21.31
2016-12-08T00:31:36.649Z,21.28
2016-12-08T00:32:04.889Z,21.33
2016-12-08T00:32:32.961Z,21.25
2016-12-08T00:33:01.083Z,21.31
2016-12-08T00:33:29.224Z,21.33
2016-12-08T00:33:57.464Z,21.27
2016-12-08T00:34:25.647Z,21.27
2016-12-08T00:34:53.630Z,21.22
2016-12-08T00:35:21.752Z,21.25
2016-12-08T00:35:49.949Z,21.27
2016-12-08T00:36:18.203Z,21.23
2016-12-08T00:36:46.274Z,21.12
2016-12-08T00:37:14.471Z,21.22
2016-12-08T00:37:42.745Z,21.15
2016-12-08T00:38:10.853Z,21.15
2016-12-08T00:38:39.051Z,21.15
2016-12-08T00:39:07.130Z,21.13
2016-12-08T00:39:35.138Z,21.13
2016-12-08T00:40:03.179Z,21.13
2016-12-08T00:40:31.201Z,21.13
2016-12-08T00:40:59.210Z,21.15
2016-12-08T00:41:27.330Z,21.22
2016-12-08T00:41:55.466Z,21.15
2016-12-08T00:42:23.704Z,21.16
2016-12-08T00:42:51.637Z,21.23
2016-12-08T00:43:19.743Z,21.23
2016-12-08T00:43:47.885Z,21.28
2016-12-08T00:44:16.180Z,21.23
2016-12-08T00:44:44.427Z,21.25
2016-12-08T00:45:12.672Z,21.25
2016-12-08T00:45:40.690Z,21.25
2016-12-08T00:46:08.887Z,21.22
2016-12-08T00:46:37.047Z,21.21
2016-12-08T00:47:05.172Z,21.25
2016-12-08T00:47:33.188Z,21.23
2016-12-08T00:48:01.345Z,21.22
2016-12-08T00:48:29.503Z,21.27
2016-12-08T00:48:57.562Z,21.31
2016-12-08T00:49:25.491Z,21.31
2016-12-08T00:49:53.627Z,21.33
2016-12-08T00:50:21.735Z,21.28
2016-12-08T00:50:49.981Z,21.27
2016-12-08T00:51:17.995Z,21.27
2016-12-08T00:51:46.123Z,21.31
2016-12-08T00:52:14.340Z,21.22
2016-12-08T00:52:42.378Z,21.28
2016-12-08T00:53:10.410Z,21.27
2016-12-08T00:53:38.558Z,21.16
2016-12-08T00:54:06.693Z,21.12
2016-12-08T00:54:34.765Z,21.12
2016-12-08T00:55:02.979Z,21.18
2016-12-08T00:55:31.239Z,21.11
2016-12-08T00:55:59.298Z,21.09
2016-12-08T00:56:27.247Z,21.12
2016-12-08T00:56:55.498Z,21.01
2016-12-08T00:57:23.588Z,21.01
2016-12-08T00:57:51.697Z,21
2016-12-08T00:58:19.786Z,21.04
2016-12-08T00:58:47.791Z,21
2016-12-08T00:59:15.790Z,20.96
2016-12-08T00:59:43.898Z,21.04
2016-12-08T01:00:12.038Z,21.01
2016-12-08T01:00:40.214Z,20.94
2016-12-08T01:01:08.391Z,21.04
2016-12-08T01:01:36.410Z,21.01
2016-12-08T01:02:04.540Z,21.06
2016-12-08T01:02:32.729Z,21.03
2016-12-08T01:03:00.871Z,21
2016-12-08T01:03:28.970Z,21.06
2016-12-08T01:03:57.020Z,21.03
2016-12-08T01:04:24.976Z,21
2016-12-08T01:04:53.145Z,21.04
2016-12-08T01:05:21.796Z,20.94
2016-12-08T01:05:49.978Z,21.01
2016-12-08T01:06:18.221Z,20.93
2016-12-08T01:06:46.306Z,20.93
2016-12-08T01:07:14.396Z,20.9
2016-12-08T01:07:42.430Z,20.97
2016-12-08T01:08:10.477Z,20.93
2016-12-08T01:08:38.518Z,20.93
2016-12-08T01:09:06.471Z,20.86
2016-12-08T01:09:34.702Z,20.91
2016-12-08T01:10:02.836Z,20.98
2016-12-08T01:10:30.985Z,20.98
2016-12-08T01:10:59.215Z,20.91
2016-12-08T01:11:27.421Z,20.98
2016-12-08T01:11:55.561Z,20.94
2016-12-08T01:12:23.818Z,20.96
2016-12-08T01:12:51.923Z,20.82
2016-12-08T01:13:19.878Z,20.86
2016-12-08T01:13:47.929Z,20.91
2016-12-08T01:14:15.974Z,20.93
2016-12-08T01:14:44.126Z,20.98
2016-12-08T01:15:12.210Z,20.9
2016-12-08T01:15:40.485Z,21
2016-12-08T01:16:08.428Z,20.98
2016-12-08T01:16:36.482Z,20.94
2016-12-08T01:17:04.537Z,20.93
2016-12-08T01:17:32.768Z,20.97
2016-12-08T01:18:01.021Z,20.96
2016-12-08T01:18:29.266Z,20.9
2016-12-08T01:18:57.397Z,20.98
2016-12-08T01:19:25.520Z,21
2016-12-08T01:19:53.561Z,21
2016-12-08T01:20:21.640Z,20.94
2016-12-08T01:20:49.658Z,20.97
2016-12-08T01:21:17.521Z,20.85
2016-12-08T01:21:45.666Z,20.93
2016-12-08T01:22:13.736Z,20.83
2016-12-08T01:22:41.957Z,20.93
2016-12-08T01:23:09.946Z,20.91
2016-12-08T01:23:38.088Z,20.81
2016-12-08T01:24:06.206Z,20.9
2016-12-08T01:24:34.271Z,20.83
2016-12-08T01:25:02.330Z,20.88
2016-12-08T01:25:30.452Z,20.9
2016-12-08T01:25:58.416Z,20.88
2016-12-08T01:26:26.626Z,20.94
2016-12-08T01:26:54.768Z,21
2016-12-08T01:27:22.992Z,20.96
2016-12-08T01:27:51.165Z,20.96
2016-12-08T01:28:19.161Z,20.93
2016-12-08T01:28:47.357Z,20.91
2016-12-08T01:29:15.529Z,20.94
2016-12-08T01:29:43.737Z,20.86
2016-12-08T01:30:11.955Z,20.94
2016-12-08T01:30:40.230Z,20.98
2016-12-08T01:31:08.189Z,20.93
2016-12-08T01:31:36.428Z,20.94
2016-12-08T01:32:04.501Z,20.91
2016-12-08T01:32:32.673Z,20.88
2016-12-08T01:33:00.796Z,20.96
2016-12-08T01:33:29.041Z,20.91
2016-12-08T01:33:57.243Z,20.86
2016-12-08T01:34:25.246Z,20.91
2016-12-08T01:34:53.453Z,20.9
2016-12-08T01:35:21.510Z,20.85
2016-12-08T01:35:49.569Z,20.88
2016-12-08T01:36:17.613Z,20.86
2016-12-08T01:36:45.802Z,20.88
2016-12-08T01:37:13.887Z,20.85
2016-12-08T01:37:42.238Z,20.88
2016-12-08T01:38:10.452Z,20.85
2016-12-08T01:38:38.674Z,20.76
2016-12-08T01:39:06.937Z,20.82
2016-12-08T01:39:35.023Z,20.78
2016-12-08T01:40:03.179Z,20.79
2016-12-08T01:40:31.255Z,20.85
2016-12-08T01:40:59.311Z,20.76
2016-12-08T01:41:27.460Z,20.85
2016-12-08T01:41:55.586Z,20.85
2016-12-08T01:42:23.599Z,20.82
2016-12-08T01:42:51.853Z,20.83
2016-12-08T01:43:20.007Z,20.81
2016-12-08T01:43:48.176Z,20.86
2016-12-08T01:44:16.414Z,20.82
2016-12-08T01:44:44.430Z,20.86
2016-12-08T01:45:12.543Z,20.82
2016-12-08T01:45:40.882Z,20.83
2016-12-08T01:46:09.266Z,20.88
2016-12-08T01:46:37.479Z,20.88
2016-12-08T01:47:05.570Z,20.88
2016-12-08T01:47:33.908Z,20.93
2016-12-08T01:48:02.051Z,20.81
2016-12-08T01:48:30.201Z,20.86
2016-12-08T01:48:58.392Z,20.85
2016-12-08T01:49:26.673Z,20.86
2016-12-08T01:49:54.890Z,20.82
2016-12-08T01:50:23.182Z,20.9
2016-12-08T01:50:51.210Z,20.83
2016-12-08T01:51:19.322Z,20.86
2016-12-08T01:51:47.528Z,20.86
2016-12-08T01:52:15.661Z,20.86
2016-12-08T01:52:44.020Z,20.82
2016-12-08T01:53:12.193Z,20.88
2016-12-08T01:53:40.265Z,20.88
2016-12-08T01:54:08.359Z,20.86
2016-12-08T01:54:36.504Z,20.88
2016-12-08T01:55:04.637Z,20.93
2016-12-08T01:55:32.763Z,20.86
2016-12-08T01:56:00.974Z,20.88
2016-12-08T01:56:29.201Z,20.85
2016-12-08T01:56:57.386Z,20.83
2016-12-08T01:57:25.546Z,20.83
2016-12-08T01:57:53.747Z,20.83
2016-12-08T01:58:21.790Z,20.83
2016-12-08T01:58:49.902Z,20.86
2016-12-08T01:59:18.056Z,20.88
2016-12-08T01:59:46.206Z,20.88
2016-12-08T02:00:14.322Z,20.88
2016-12-08T02:00:42.551Z,20.9
2016-12-08T02:01:10.592Z,20.93
2016-12-08T02:01:38.560Z,20.88
2016-12-08T02:02:06.681Z,20.86
2016-12-08T02:02:34.895Z,20.91
2016-12-08T02:03:03.160Z,20.88
2016-12-08T02:03:31.249Z,20.88
2016-12-08T02:03:59.426Z,20.81
2016-12-08T02:04:27.545Z,20.83
2016-12-08T02:04:55.663Z,20.88
2016-12-08T02:05:23.801Z,20.91
2016-12-08T02:05:51.751Z,20.85
2016-12-08T02:06:19.887Z,20.9
2016-12-08T02:06:47.962Z,20.9
2016-12-08T02:07:16.117Z,20.82
2016-12-08T02:07:44.210Z,20.9
2016-12-08T02:08:12.585Z,20.94
2016-12-08T02:08:40.640Z,20.85
2016-12-08T02:09:08.782Z,20.9
2016-12-08T02:09:36.945Z,20.9
2016-12-08T02:10:05.008Z,20.82
2016-12-08T02:10:33.122Z,20.88
2016-12-08T02:11:01.260Z,20.94
2016-12-08T02:11:29.369Z,20.94
2016-12-08T02:11:57.480Z,20.86
2016-12-08T02:12:25.621Z,20.97
2016-12-08T02:12:53.733Z,20.93
2016-12-08T02:13:21.924Z,20.98
2016-12-08T02:13:50.205Z,20.94
2016-12-08T02:14:18.150Z,20.98
2016-12-08T02:14:46.280Z,20.93
2016-12-08T02:15:14.518Z,21
2016-12-08T02:15:42.576Z,21
2016-12-08T02:16:10.719Z,21
2016-12-08T02:16:38.769Z,21.01
2016-12-08T02:17:06.910Z,20.98
2016-12-08T02:17:34.947Z,21
2016-12-08T02:18:03.243Z,20.88
2016-12-08T02:18:31.424Z,20.9
2016-12-08T02:18:59.517Z,20.96
2016-12-08T02:19:27.702Z,20.98
2016-12-08T02:19:55.725Z,21
2016-12-08T02:20:23.698Z,20.9
2016-12-08T02:20:51.822Z,20.91
2016-12-08T02:21:19.975Z,20.91
2016-12-08T02:21:48.089Z,20.88
2016-12-08T02:22:16.154Z,20.91
2016-12-08T02:22:44.225Z,20.86
2016-12-08T02:23:12.269Z,20.97
2016-12-08T02:23:40.255Z,20.94
2016-12-08T02:24:08.222Z,20.9
2016-12-08T02:24:36.241Z,20.93
2016-12-08T02:25:04.476Z,20.93
2016-12-08T02:25:32.585Z,20.86
2016-12-08T02:26:00.718Z,20.88
2016-12-08T02:26:28.862Z,20.96
2016-12-08T02:26:56.988Z,20.93
2016-12-08T02:27:24.990Z,20.83
2016-12-08T02:27:53.108Z,20.96
2016-12-08T02:28:21.427Z,20.9
2016-12-08T02:28:49.462Z,20.85
2016-12-08T02:29:17.606Z,20.83
2016-12-08T02:29:45.831Z,20.82
2016-12-08T02:30:13.938Z,20.78
2016-12-08T02:30:42.078Z,20.79
2016-12-08T02:31:10.156Z,20.82
2016-12-08T02:31:38.274Z,20.81
2016-12-08T02:32:06.420Z,20.79
2016-12-08T02:32:34.281Z,20.82
2016-12-08T02:33:02.288Z,20.78
2016-12-08T02:33:30.536Z,20.76
2016-12-08T02:33:58.586Z,20.82
2016-12-08T02:34:26.823Z,20.83
2016-12-08T02:34:54.936Z,20.81
2016-12-08T02:35:23.037Z,20.88
2016-12-08T02:35:51.137Z,20.91
2016-12-08T02:36:19.272Z,20.91
2016-12-08T02:36:47.451Z,20.88
2016-12-08T02:37:15.595Z,20.88
2016-12-08T02:37:43.757Z,20.97
2016-12-08T02:38:12.003Z,20.9
2016-12-08T02:38:40.249Z,20.85
2016-12-08T02:39:08.535Z,20.96
2016-12-08T02:39:36.736Z,20.96
2016-12-08T02:40:04.862Z,20.96
2016-12-08T02:40:33.020Z,20.86
2016-12-08T02:41:01.067Z,20.93
2016-12-08T02:41:29.297Z,20.93
2016-12-08T02:41:57.421Z,20.9
2016-12-08T02:42:25.576Z,20.9
2016-12-08T02:42:53.635Z,20.88
2016-12-08T02:43:21.929Z,20.96
2016-12-08T02:43:49.901Z,20.82
2016-12-08T02:44:17.849Z,20.9
2016-12-08T02:44:45.922Z,20.88
2016-12-08T02:45:14.073Z,20.86
2016-12-08T02:45:42.127Z,20.91
2016-12-08T02:46:09.985Z,20.86
2016-12-08T02:46:38.243Z,20.79
2016-12-08T02:47:06.271Z,20.88
2016-12-08T02:47:34.496Z,20.85
2016-12-08T02:48:02.466Z,20.78
2016-12-08T02:48:30.719Z,20.81
2016-12-08T02:48:58.649Z,20.82
2016-12-08T02:49:26.776Z,20.83
2016-12-08T02:49:54.800Z,20.81
2016-12-08T02:50:22.941Z,20.78
2016-12-08T02:50:51.180Z,20.75
2016-12-08T02:51:19.365Z,20.76
2016-12-08T02:51:47.315Z,20.74
2016-12-08T02:52:15.426Z,20.74
2016-12-08T02:52:43.444Z,20.75
2016-12-08T02:53:11.491Z,20.67
2016-12-08T02:53:39.921Z,20.67
2016-12-08T02:54:08.151Z,20.64
2016-12-08T02:54:36.209Z,20.6
2016-12-08T02:55:04.450Z,20.56
2016-12-08T02:55:32.665Z,20.6
2016-12-08T02:56:00.786Z,20.67
2016-12-08T02:56:28.948Z,20.6
2016-12-08T02:56:57.219Z,20.61
2016-12-08T02:57:25.307Z,20.64
2016-12-08T02:57:53.460Z,20.58
2016-12-08T02:58:21.676Z,20.56
2016-12-08T02:58:49.839Z,20.53
2016-12-08T02:59:17.998Z,20.58
2016-12-08T02:59:46.159Z,20.56
2016-12-08T03:00:14.421Z,20.56
2016-12-08T03:00:42.665Z,20.56
2016-12-08T03:01:10.855Z,20.6
2016-12-08T03:01:38.757Z,20.66
2016-12-08T03:02:06.979Z,20.57
2016-12-08T03:02:35.243Z,20.53
2016-12-08T03:03:03.224Z,20.58
2016-12-08T03:03:31.457Z,20.58
2016-12-08T03:03:59.678Z,20.57
2016-12-08T03:04:27.877Z,20.58
2016-12-08T03:04:55.920Z,20.63
2016-12-08T03:05:24.203Z,20.61
2016-12-08T03:05:52.451Z,20.57
2016-12-08T03:06:20.489Z,20.61
2016-12-08T03:06:48.634Z,20.61
2016-12-08T03:07:16.710Z,20.61
2016-12-08T03:07:44.852Z,20.58
2016-12-08T03:08:12.921Z,20.6
2016-12-08T03:08:41.157Z,20.6
2016-12-08T03:09:09.257Z,20.58
2016-12-08T03:09:37.349Z,20.57
2016-12-08T03:10:05.592Z,20.58
2016-12-08T03:10:33.813Z,20.58
2016-12-08T03:11:01.942Z,20.58
2016-12-08T03:11:29.882Z,20.63
2016-12-08T03:11:58.158Z,20.57
2016-12-08T03:12:26.164Z,20.57
2016-12-08T03:12:54.161Z,20.57
2016-12-08T03:13:22.373Z,20.44
2016-12-08T03:13:50.527Z,20.49
2016-12-08T03:14:18.675Z,20.54
2016-12-08T03:14:46.712Z,20.51
2016-12-08T03:15:14.960Z,20.42
2016-12-08T03:15:43.045Z,20.48
2016-12-08T03:16:11.160Z,20.49
2016-12-08T03:16:39.170Z,20.46
2016-12-08T03:17:07.215Z,20.49
2016-12-08T03:17:35.134Z,20.42
2016-12-08T03:18:03.372Z,20.3
2016-12-08T03:18:31.618Z,20.37
2016-12-08T03:18:59.966Z,20.34
2016-12-08T03:19:27.845Z,20.32
2016-12-08T03:19:56.110Z,20.41
2016-12-08T03:20:24.258Z,20.4
2016-12-08T03:20:52.492Z,20.35
2016-12-08T03:21:20.716Z,20.38
2016-12-08T03:21:48.927Z,20.29
2016-12-08T03:22:17.075Z,20.35
2016-12-08T03:22:45.297Z,20.29
2016-12-08T03:23:13.313Z,20.26
2016-12-08T03:23:41.380Z,20.29
2016-12-08T03:24:09.471Z,20.32
2016-12-08T03:24:37.570Z,20.27
2016-12-08T03:25:05.722Z,20.25
2016-12-08T03:25:33.993Z,20.29
2016-12-08T03:26:02.031Z,20.25
2016-12-08T03:26:30.228Z,20.23
2016-12-08T03:26:58.256Z,20.18
2016-12-08T03:27:26.397Z,20.19
2016-12-08T03:27:54.707Z,20.18
2016-12-08T03:28:22.933Z,20.19
2016-12-08T03:28:51.162Z,20.12
2016-12-08T03:29:19.073Z,20.15
2016-12-08T03:29:47.324Z,20.12
2016-12-08T03:30:15.370Z,20.08
2016-12-08T03:30:43.455Z,20.15
2016-12-08T03:31:11.567Z,20.15
2016-12-08T03:31:39.706Z,20.07
2016-12-08T03:32:07.969Z,20.08
2016-12-08T03:32:36.115Z,20.1
2016-12-08T03:33:04.236Z,20.01
2016-12-08T03:33:32.441Z,20.01
2016-12-08T03:34:00.620Z,19.97
2016-12-08T03:34:28.679Z,20
2016-12-08T03:34:56.789Z,20
2016-12-08T03:35:25.042Z,20
2016-12-08T03:35:53.175Z,20.01
2016-12-08T03:36:21.400Z,19.93
2016-12-08T03:36:49.483Z,19.97
2016-12-08T03:37:54.849Z,19.98
2016-12-08T03:38:23.132Z,19.93
2016-12-08T03:38:51.454Z,19.89
2016-12-08T03:39:19.542Z,19.92
2016-12-08T03:39:47.795Z,19.93
2016-12-08T03:40:16.060Z,19.9
2016-12-08T03:40:44.253Z,19.86
2016-12-08T03:41:12.409Z,19.82
2016-12-08T03:41:40.629Z,19.92
2016-12-08T03:42:08.979Z,19.97
2016-12-08T03:42:37.167Z,19.92
2016-12-08T03:43:05.326Z,20
2016-12-08T03:43:33.626Z,19.85
2016-12-08T03:44:01.888Z,19.93
2016-12-08T03:44:29.981Z,19.93
2016-12-08T03:44:58.226Z,19.97
2016-12-08T03:45:26.276Z,19.93
2016-12-08T03:45:54.444Z,20.02
2016-12-08T03:46:22.625Z,19.89
2016-12-08T03:46:51.086Z,19.95
2016-12-08T03:47:19.148Z,19.93
2016-12-08T03:47:47.243Z,19.98
2016-12-08T03:48:15.325Z,19.95
2016-12-08T03:48:43.552Z,19.98
2016-12-08T03:49:11.715Z,19.93
2016-12-08T03:49:39.830Z,19.97
2016-12-08T03:50:08.252Z,19.92
2016-12-08T03:50:36.419Z,20.01
2016-12-08T03:51:04.504Z,19.9
2016-12-08T03:51:32.807Z,19.87
2016-12-08T03:52:00.960Z,19.79
2016-12-08T03:52:28.957Z,19.83
2016-12-08T03:52:57.057Z,19.9
2016-12-08T03:53:25.135Z,19.9
2016-12-08T03:53:53.311Z,19.79
2016-12-08T03:54:21.471Z,19.92
2016-12-08T03:54:49.657Z,19.87
2016-12-08T03:55:17.851Z,19.8
2016-12-08T03:55:46.014Z,19.83
2016-12-08T03:56:14.282Z,19.87
2016-12-08T03:56:42.485Z,19.82
2016-12-08T03:57:10.616Z,19.74
2016-12-08T03:57:38.643Z,19.79
2016-12-08T03:58:06.942Z,19.72
2016-12-08T03:58:35.259Z,19.82
2016-12-08T03:59:03.353Z,19.74
2016-12-08T03:59:31.661Z,19.72
2016-12-08T03:59:59.608Z,19.75
2016-12-08T04:00:27.798Z,19.72
2016-12-08T04:00:55.820Z,19.7
2016-12-08T04:01:24.029Z,19.74
2016-12-08T04:01:52.193Z,19.75
2016-12-08T04:02:20.285Z,19.78
2016-12-08T04:02:48.281Z,19.72
2016-12-08T04:03:16.589Z,19.68
2016-12-08T04:03:44.617Z,19.72
2016-12-08T04:04:12.875Z,19.75
2016-12-08T04:04:41.047Z,19.74
2016-12-08T04:05:09.073Z,19.79
2016-12-08T04:05:37.355Z,19.82
2016-12-08T04:06:05.541Z,19.79
2016-12-08T04:06:33.736Z,19.83
2016-12-08T04:07:01.771Z,19.8
2016-12-08T04:07:29.963Z,19.8
2016-12-08T04:07:58.251Z,19.8
2016-12-08T04:08:26.532Z,19.79
2016-12-08T04:08:54.739Z,19.89
2016-12-08T04:09:22.941Z,19.93
2016-12-08T04:09:51.088Z,19.92
2016-12-08T04:10:19.149Z,19.9
2016-12-08T04:10:47.370Z,19.97
2016-12-08T04:11:15.502Z,19.93
2016-12-08T04:11:43.535Z,19.9
2016-12-08T04:12:11.717Z,19.86
2016-12-08T04:12:39.771Z,19.9
2016-12-08T04:13:07.997Z,19.89
2016-12-08T04:13:36.255Z,19.93
2016-12-08T04:14:04.665Z,19.87
2016-12-08T04:14:32.686Z,19.85
2016-12-08T04:15:00.820Z,19.89
2016-12-08T04:15:28.776Z,19.86
2016-12-08T04:15:56.993Z,19.92
2016-12-08T04:16:25.241Z,19.85
2016-12-08T04:16:53.251Z,19.79
2016-12-08T04:17:21.444Z,19.79
2016-12-08T04:17:49.782Z,19.8
2016-12-08T04:18:17.802Z,19.8
2016-12-08T04:18:45.906Z,19.86
2016-12-08T04:19:14.265Z,19.86
2016-12-08T04:19:42.455Z,19.8
2016-12-08T04:20:10.667Z,19.85
2016-12-08T04:20:38.964Z,19.82
2016-12-08T04:21:07.130Z,19.74
2016-12-08T04:21:35.340Z,19.71
2016-12-08T04:22:03.495Z,19.78
2016-12-08T04:22:31.653Z,19.75
2016-12-08T04:22:59.809Z,19.74
2016-12-08T04:23:27.995Z,19.72
2016-12-08T04:23:56.090Z,19.74
2016-12-08T04:24:24.236Z,19.78
2016-12-08T04:24:52.439Z,19.79
2016-12-08T04:25:20.654Z,19.8
2016-12-08T04:25:48.840Z,19.82
2016-12-08T04:26:17.040Z,19.83
2016-12-08T04:26:45.121Z,19.85
2016-12-08T04:27:13.352Z,19.8
2016-12-08T04:27:41.645Z,19.8
2016-12-08T04:28:09.838Z,19.93
2016-12-08T04:28:38.057Z,19.86
2016-12-08T04:29:06.306Z,19.82
2016-12-08T04:29:34.489Z,19.86
2016-12-08T04:30:02.580Z,19.83
2016-12-08T04:30:30.919Z,19.86
2016-12-08T04:30:59.061Z,19.85
2016-12-08T04:31:27.136Z,19.86
2016-12-08T04:31:55.210Z,19.85
2016-12-08T04:32:23.314Z,19.8
2016-12-08T04:32:51.420Z,19.83
2016-12-08T04:33:19.748Z,19.8
2016-12-08T04:33:47.811Z,19.87
2016-12-08T04:34:16.110Z,19.89
2016-12-08T04:34:44.258Z,19.79
2016-12-08T04:35:12.354Z,19.74
2016-12-08T04:35:40.644Z,19.78
2016-12-08T04:36:08.723Z,19.83
2016-12-08T04:36:36.930Z,19.85
2016-12-08T04:37:05.122Z,19.82
2016-12-08T04:37:33.090Z,19.86
2016-12-08T04:38:01.237Z,19.82
2016-12-08T04:38:29.339Z,19.85
2016-12-08T04:38:57.424Z,19.82
2016-12-08T04:39:25.749Z,19.82
2016-12-08T04:39:53.891Z,19.87
2016-12-08T04:40:22.167Z,19.83
2016-12-08T04:40:50.339Z,19.82
2016-12-08T04:41:18.515Z,19.8
2016-12-08T04:41:46.754Z,19.71
2016-12-08T04:42:14.882Z,19.74
2016-12-08T04:42:42.928Z,19.75
2016-12-08T04:43:10.977Z,19.74
2016-12-08T04:43:39.124Z,19.78
2016-12-08T04:44:07.342Z,19.71
2016-12-08T04:44:35.606Z,19.7
2016-12-08T04:45:03.795Z,19.75
2016-12-08T04:45:31.781Z,19.74
2016-12-08T04:45:59.994Z,19.72
2016-12-08T04:46:28.240Z,19.79
2016-12-08T04:46:56.287Z,19.74
2016-12-08T04:47:24.500Z,19.83
2016-12-08T04:47:52.693Z,19.74
2016-12-08T04:48:20.808Z,19.71
2016-12-08T04:48:49.113Z,19.83
2016-12-08T04:49:17.423Z,19.78
2016-12-08T04:49:45.599Z,19.72
2016-12-08T04:50:13.868Z,19.79
2016-12-08T04:50:42.025Z,19.85
2016-12-08T04:51:10.114Z,19.8
2016-12-08T04:51:38.234Z,19.74
2016-12-08T04:52:06.388Z,19.79
2016-12-08T04:52:34.644Z,19.83
2016-12-08T04:53:02.850Z,19.82
2016-12-08T04:53:30.926Z,19.85
2016-12-08T04:53:59.203Z,19.8
2016-12-08T04:54:27.377Z,19.82
2016-12-08T04:54:55.483Z,19.83
2016-12-08T04:55:23.491Z,19.86
2016-12-08T04:55:51.523Z,19.85
2016-12-08T04:56:19.880Z,19.87
2016-12-08T04:56:47.861Z,19.8
2016-12-08T04:57:15.931Z,19.83
2016-12-08T04:57:44.198Z,19.82
2016-12-08T04:58:12.410Z,19.8
2016-12-08T04:58:40.609Z,19.85
2016-12-08T04:59:08.779Z,19.83
2016-12-08T04:59:37.094Z,19.82
2016-12-08T05:00:05.236Z,19.86
2016-12-08T05:00:33.587Z,19.9
2016-12-08T05:01:01.791Z,19.83
2016-12-08T05:01:29.842Z,19.79
2016-12-08T05:01:57.745Z,19.79
2016-12-08T05:02:26.020Z,19.89
2016-12-08T05:02:54.263Z,19.83
2016-12-08T05:03:22.456Z,19.72
2016-12-08T05:03:50.679Z,19.82
2016-12-08T05:04:18.990Z,19.8
2016-12-08T05:04:46.986Z,19.83
2016-12-08T05:05:15.284Z,19.72
2016-12-08T05:05:43.453Z,19.74
2016-12-08T05:06:11.550Z,19.82
2016-12-08T05:06:39.620Z,19.75
2016-12-08T05:07:07.847Z,19.74
2016-12-08T05:07:35.968Z,19.72
2016-12-08T05:08:04.254Z,19.71
2016-12-08T05:08:58.488Z,19.74
2016-12-08T05:09:26.842Z,19.68
2016-12-08T05:09:55.012Z,19.79
2016-12-08T05:10:23.270Z,19.71
2016-12-08T05:10:51.443Z,19.82
2016-12-08T05:11:19.639Z,19.79
2016-12-08T05:11:47.845Z,19.72
2016-12-08T05:12:16.053Z,19.71
2016-12-08T05:12:44.039Z,19.79
2016-12-08T05:13:12.336Z,19.82
2016-12-08T05:13:40.540Z,19.78
2016-12-08T05:14:08.497Z,19.8
2016-12-08T05:14:36.865Z,19.82
2016-12-08T05:15:04.884Z,19.72
2016-12-08T05:15:32.997Z,19.82
2016-12-08T05:16:01.221Z,19.82
2016-12-08T05:16:29.317Z,19.8
2016-12-08T05:16:57.417Z,19.86
2016-12-08T05:17:25.662Z,19.82
2016-12-08T05:17:53.869Z,19.87
2016-12-08T05:18:21.889Z,19.82
2016-12-08T05:18:50.173Z,19.74
2016-12-08T05:19:18.417Z,19.72
2016-12-08T05:19:46.602Z,19.72
2016-12-08T05:20:14.707Z,19.71
2016-12-08T05:20:42.818Z,19.71
2016-12-08T05:21:11.011Z,19.78
2016-12-08T05:21:39.068Z,19.78
2016-12-08T05:22:07.370Z,19.7
2016-12-08T05:22:35.450Z,19.75
2016-12-08T05:23:03.760Z,19.74
2016-12-08T05:23:31.834Z,19.71
2016-12-08T05:24:00.030Z,19.79
2016-12-08T05:24:28.270Z,19.71
2016-12-08T05:24:56.505Z,19.74
2016-12-08T05:25:24.751Z,19.72
2016-12-08T05:25:52.863Z,19.78
2016-12-08T05:26:20.845Z,19.78
2016-12-08T05:26:48.816Z,19.72
2016-12-08T05:27:17.072Z,19.74
2016-12-08T05:27:45.275Z,19.78
2016-12-08T05:28:13.522Z,19.75
2016-12-08T05:28:41.620Z,19.71
2016-12-08T05:29:09.859Z,19.72
2016-12-08T05:29:38.055Z,19.72
2016-12-08T05:30:06.185Z,19.75
2016-12-08T05:30:34.236Z,19.75
2016-12-08T05:31:02.438Z,19.75
2016-12-08T05:31:30.737Z,19.72
2016-12-08T05:31:58.996Z,19.78
2016-12-08T05:32:27.289Z,19.78
2016-12-08T05:32:55.555Z,19.71
2016-12-08T05:33:23.825Z,19.68
2016-12-08T05:33:52.137Z,19.74
2016-12-08T05:34:20.232Z,19.8
2016-12-08T05:34:48.332Z,19.79
2016-12-08T05:35:16.520Z,19.74
2016-12-08T05:35:44.549Z,19.75
2016-12-08T05:36:12.766Z,19.75
2016-12-08T05:36:41.100Z,19.78
2016-12-08T05:37:09.284Z,19.74
2016-12-08T05:37:37.561Z,19.75
2016-12-08T05:38:05.836Z,19.71
2016-12-08T05:38:33.963Z,19.74
2016-12-08T05:39:02.093Z,19.78
2016-12-08T05:39:30.316Z,19.74
2016-12-08T05:39:58.691Z,19.75
2016-12-08T05:40:26.902Z,19.72
2016-12-08T05:40:55.035Z,19.78
2016-12-08T05:41:23.180Z,19.75
2016-12-08T05:41:51.381Z,19.72
2016-12-08T05:42:19.710Z,19.72
2016-12-08T05:42:47.846Z,19.72
2016-12-08T05:43:16.173Z,19.83
2016-12-08T05:43:44.441Z,19.74
2016-12-08T05:44:12.732Z,19.74
2016-12-08T05:44:40.945Z,19.75
2016-12-08T05:45:09.109Z,19.71
2016-12-08T05:45:37.361Z,19.74
2016-12-08T05:46:05.556Z,19.78
2016-12-08T05:46:33.727Z,19.74
2016-12-08T05:47:01.646Z,19.87
2016-12-08T05:47:29.663Z,19.8
2016-12-08T05:47:57.981Z,19.83
2016-12-08T05:48:25.961Z,19.82
2016-12-08T05:48:54.010Z,19.78
2016-12-08T05:49:22.197Z,19.82
2016-12-08T05:49:50.532Z,19.82
2016-12-08T05:50:18.824Z,19.83
2016-12-08T05:50:47.110Z,19.8
2016-12-08T05:51:15.316Z,19.82
2016-12-08T05:51:43.544Z,19.82
2016-12-08T05:52:11.759Z,19.82
2016-12-08T05:52:40.059Z,19.79
2016-12-08T05:53:08.284Z,19.86
2016-12-08T05:53:36.334Z,19.8
2016-12-08T05:54:04.519Z,19.86
2016-12-08T05:54:32.596Z,19.82
2016-12-08T05:55:00.796Z,19.79
2016-12-08T05:55:29.068Z,19.89
2016-12-08T05:55:57.209Z,19.89
2016-12-08T05:56:25.307Z,19.93
2016-12-08T05:56:53.439Z,19.98
2016-12-08T05:57:21.616Z,19.83
2016-12-08T05:57:49.810Z,19.95
2016-12-08T05:58:18.028Z,19.86
2016-12-08T05:58:46.267Z,19.9
2016-12-08T05:59:14.393Z,19.89
2016-12-08T05:59:42.638Z,19.79
2016-12-08T06:00:10.871Z,19.83
2016-12-08T06:00:39.063Z,19.85
2016-12-08T06:01:07.254Z,19.8
2016-12-08T06:01:35.369Z,19.8
2016-12-08T06:02:03.623Z,19.79
2016-12-08T06:02:31.835Z,19.86
2016-12-08T06:03:00.078Z,19.86
2016-12-08T06:03:28.206Z,19.85
2016-12-08T06:03:56.442Z,19.85
2016-12-08T06:04:24.453Z,19.8
2016-12-08T06:04:52.764Z,19.82
2016-12-08T06:05:21.052Z,19.79